首页
METAR-TAF:

METAR-TAF

机场 :

成都双流国际机场

成都, 中华人民共和国

纬度: 30-40N, 经度: 104-01E, 海拔: 508米

当前天气观测

该预报发布于19分钟前的11:00 UTC
静风
温度 27°C
湿度 42%
气压 1006 hPa
能见度10公里或以上
散云层高于4000英尺

METAR: ZUUU 211100Z 00000MPS 9999 SCT040 27/13 Q1006 NOSIG

时间: 19:19 (11:19 UTC)

预报

该预报发布于9小时和3分钟前的02:16 UTC
预报有效从21日的 06点(UTC)到 22日的 06点(UTC)
风速6节,风向南转西南
能見度: 5000
散云层高于5000英尺
轻雾

TAF: ZUUU 210216Z 2106/2206 20003MPS 5000 BR SCT050 TX28/2107Z TN16/2122Z

超过4000个机场的气象观测和天气预报(METAR&TAF报告)。

可查询的气象台以黄色和红色小点在地图上表示。

将鼠标移到小点上方,可查看气象台名称。

然后点击查看天气观测和预报。

如需切换地图:点击带黑十字的绿色按钮放大地图;点击带横线的绿色按钮缩小地图;或者点击绿色箭头查看邻近地区的地图。


METAR-TAF: